sensor_id;sensor_type;location;lat;lon;timestamp;temperature;humidity
50947;DHT22;36955;47.416;7.716;2022-08-19T00:01:36;16.80;99.90
50947;DHT22;36955;47.416;7.716;2022-08-19T00:04:06;16.80;99.90
50947;DHT22;36955;47.416;7.716;2022-08-19T00:06:34;16.80;99.90
50947;DHT22;36955;47.416;7.716;2022-08-19T00:09:01;16.80;99.90
50947;DHT22;36955;47.416;7.716;2022-08-19T00:11:27;16.80;99.90
50947;DHT22;36955;47.416;7.716;2022-08-19T00:13:55;16.80;99.90
50947;DHT22;36955;47.416;7.716;2022-08-19T00:16:21;16.70;99.90
50947;DHT22;36955;47.416;7.716;2022-08-19T00:18:48;16.70;99.90
50947;DHT22;36955;47.416;7.716;2022-08-19T00:21:14;16.70;99.90
50947;DHT22;36955;47.416;7.716;2022-08-19T00:23:42;16.70;99.90
50947;DHT22;36955;47.416;7.716;2022-08-19T00:26:10;16.70;99.90
50947;DHT22;36955;47.416;7.716;2022-08-19T00:28:37;16.80;99.90
50947;DHT22;36955;47.416;7.716;2022-08-19T00:31:04;16.80;99.90
50947;DHT22;36955;47.416;7.716;2022-08-19T00:33:32;16.80;99.90
50947;DHT22;36955;47.416;7.716;2022-08-19T00:35:59;16.80;99.90
50947;DHT22;36955;47.416;7.716;2022-08-19T00:38:25;16.80;99.90
50947;DHT22;36955;47.416;7.716;2022-08-19T00:40:51;16.80;99.90
50947;DHT22;36955;47.416;7.716;2022-08-19T00:43:21;16.80;99.90
50947;DHT22;36955;47.416;7.716;2022-08-19T00:45:47;16.80;99.90
50947;DHT22;36955;47.416;7.716;2022-08-19T00:48:14;16.80;99.90
50947;DHT22;36955;47.416;7.716;2022-08-19T00:50:41;16.80;99.90
50947;DHT22;36955;47.416;7.716;2022-08-19T00:53:08;16.70;99.90
50947;DHT22;36955;47.416;7.716;2022-08-19T00:55:35;16.70;99.90
50947;DHT22;36955;47.416;7.716;2022-08-19T00:58:07;16.60;99.90
50947;DHT22;36955;47.416;7.716;2022-08-19T01:00:34;16.60;99.90
50947;DHT22;36955;47.416;7.716;2022-08-19T01:03:01;16.50;99.90
50947;DHT22;36955;47.416;7.716;2022-08-19T01:05:28;16.50;99.90
50947;DHT22;36955;47.416;7.716;2022-08-19T01:07:56;16.50;99.90
50947;DHT22;36955;47.416;7.716;2022-08-19T01:10:26;16.50;99.90
50947;DHT22;36955;47.416;7.716;2022-08-19T01:12:55;16.50;99.90
50947;DHT22;36955;47.416;7.716;2022-08-19T01:15:25;16.50;99.90
50947;DHT22;36955;47.416;7.716;2022-08-19T01:17:53;16.50;99.90
50947;DHT22;36955;47.416;7.716;2022-08-19T01:20:21;16.50;99.90
50947;DHT22;36955;47.416;7.716;2022-08-19T01:22:51;16.50;99.90
50947;DHT22;36955;47.416;7.716;2022-08-19T01:25:20;16.50;99.90
50947;DHT22;36955;47.416;7.716;2022-08-19T01:27:49;16.40;99.90
50947;DHT22;36955;47.416;7.716;2022-08-19T01:30:22;16.40;99.90
50947;DHT22;36955;47.416;7.716;2022-08-19T01:32:49;16.30;99.90
50947;DHT22;36955;47.416;7.716;2022-08-19T01:35:16;16.30;99.90
50947;DHT22;36955;47.416;7.716;2022-08-19T01:37:56;16.30;99.90
50947;DHT22;36955;47.416;7.716;2022-08-19T01:40:25;16.20;99.90
50947;DHT22;36955;47.416;7.716;2022-08-19T01:42:52;16.30;99.90
50947;DHT22;36955;47.416;7.716;2022-08-19T01:45:21;16.20;99.90
50947;DHT22;36955;47.416;7.716;2022-08-19T01:47:48;16.20;99.90
50947;DHT22;36955;47.416;7.716;2022-08-19T01:50:15;16.20;99.90
50947;DHT22;36955;47.416;7.716;2022-08-19T01:52:42;16.30;99.90
50947;DHT22;36955;47.416;7.716;2022-08-19T01:55:11;16.30;99.90
50947;DHT22;36955;47.416;7.716;2022-08-19T01:57:39;16.30;99.90
50947;DHT22;36955;47.416;7.716;2022-08-19T02:00:09;16.30;99.90
50947;DHT22;36955;47.416;7.716;2022-08-19T02:02:35;16.30;99.90
50947;DHT22;36955;47.416;7.716;2022-08-19T02:05:02;16.30;99.90
50947;DHT22;36955;47.416;7.716;2022-08-19T02:07:28;16.40;99.90
50947;DHT22;36955;47.416;7.716;2022-08-19T02:09:54;16.40;99.90
50947;DHT22;36955;47.416;7.716;2022-08-19T02:12:21;16.40;99.90
50947;DHT22;36955;47.416;7.716;2022-08-19T02:14:48;16.30;99.90
50947;DHT22;36955;47.416;7.716;2022-08-19T02:17:14;16.40;99.90
50947;DHT22;36955;47.416;7.716;2022-08-19T02:19:40;16.40;99.90
50947;DHT22;36955;47.416;7.716;2022-08-19T02:22:06;16.50;99.90
50947;DHT22;36955;47.416;7.716;2022-08-19T02:24:32;16.50;99.90
50947;DHT22;36955;47.416;7.716;2022-08-19T02:26:59;16.50;99.90
50947;DHT22;36955;47.416;7.716;2022-08-19T02:29:25;16.50;99.90
50947;DHT22;36955;47.416;7.716;2022-08-19T02:31:51;16.50;99.90
50947;DHT22;36955;47.416;7.716;2022-08-19T02:34:18;16.50;99.90
50947;DHT22;36955;47.416;7.716;2022-08-19T02:36:44;16.40;99.90
50947;DHT22;36955;47.416;7.716;2022-08-19T02:39:10;16.40;99.90
50947;DHT22;36955;47.416;7.716;2022-08-19T02:41:36;16.40;99.90
50947;DHT22;36955;47.416;7.716;2022-08-19T02:44:03;16.30;99.90
50947;DHT22;36955;47.416;7.716;2022-08-19T02:46:30;16.40;99.90
50947;DHT22;36955;47.416;7.716;2022-08-19T02:49:00;16.30;99.90
50947;DHT22;36955;47.416;7.716;2022-08-19T02:51:33;16.30;99.90
50947;DHT22;36955;47.416;7.716;2022-08-19T02:54:00;16.30;99.90
50947;DHT22;36955;47.416;7.716;2022-08-19T02:56:27;16.30;99.90
50947;DHT22;36955;47.416;7.716;2022-08-19T02:58:56;16.30;99.90
50947;DHT22;36955;47.416;7.716;2022-08-19T03:01:30;16.30;99.90
50947;DHT22;36955;47.416;7.716;2022-08-19T03:03:58;16.30;99.90
50947;DHT22;36955;47.416;7.716;2022-08-19T03:06:24;16.30;99.90
50947;DHT22;36955;47.416;7.716;2022-08-19T03:08:51;16.30;99.90
50947;DHT22;36955;47.416;7.716;2022-08-19T03:11:21;16.30;99.90
50947;DHT22;36955;47.416;7.716;2022-08-19T03:13:48;16.30;99.90
50947;DHT22;36955;47.416;7.716;2022-08-19T03:16:15;16.30;99.90
50947;DHT22;36955;47.416;7.716;2022-08-19T03:18:41;16.30;99.90
50947;DHT22;36955;47.416;7.716;2022-08-19T03:21:07;16.20;99.90
50947;DHT22;36955;47.416;7.716;2022-08-19T03:23:34;16.30;99.90
50947;DHT22;36955;47.416;7.716;2022-08-19T03:26:04;16.30;99.90
50947;DHT22;36955;47.416;7.716;2022-08-19T03:28:31;16.20;99.90
50947;DHT22;36955;47.416;7.716;2022-08-19T03:31:00;16.20;99.90
50947;DHT22;36955;47.416;7.716;2022-08-19T03:33:27;16.20;99.90
50947;DHT22;36955;47.416;7.716;2022-08-19T03:36:15;16.20;99.90
50947;DHT22;36955;47.416;7.716;2022-08-19T03:38:47;16.20;99.90
50947;DHT22;36955;47.416;7.716;2022-08-19T03:41:15;16.20;99.90
50947;DHT22;36955;47.416;7.716;2022-08-19T03:43:43;16.20;99.90
50947;DHT22;36955;47.416;7.716;2022-08-19T03:46:13;16.20;99.90
50947;DHT22;36955;47.416;7.716;2022-08-19T03:48:40;16.20;99.90
50947;DHT22;36955;47.416;7.716;2022-08-19T03:51:14;16.20;99.90
50947;DHT22;36955;47.416;7.716;2022-08-19T03:53:40;16.20;99.90
50947;DHT22;36955;47.416;7.716;2022-08-19T03:56:08;16.20;99.90
50947;DHT22;36955;47.416;7.716;2022-08-19T03:58:35;16.20;99.90
50947;DHT22;36955;47.416;7.716;2022-08-19T04:01:01;16.20;99.90
50947;DHT22;36955;47.416;7.716;2022-08-19T04:03:27;16.20;99.90
50947;DHT22;36955;47.416;7.716;2022-08-19T04:05:53;16.20;99.90
50947;DHT22;36955;47.416;7.716;2022-08-19T04:08:19;16.20;99.90
50947;DHT22;36955;47.416;7.716;2022-08-19T04:10:47;16.20;99.90
50947;DHT22;36955;47.416;7.716;2022-08-19T04:13:17;16.20;99.90
50947;DHT22;36955;47.416;7.716;2022-08-19T04:15:45;16.20;99.90
50947;DHT22;36955;47.416;7.716;2022-08-19T04:18:11;16.30;99.90
50947;DHT22;36955;47.416;7.716;2022-08-19T04:20:44;16.30;99.90
50947;DHT22;36955;47.416;7.716;2022-08-19T04:23:12;16.20;99.90
50947;DHT22;36955;47.416;7.716;2022-08-19T04:25:40;16.20;99.90
50947;DHT22;36955;47.416;7.716;2022-08-19T04:28:07;16.30;99.90
50947;DHT22;36955;47.416;7.716;2022-08-19T04:30:45;16.30;99.90
50947;DHT22;36955;47.416;7.716;2022-08-19T04:33:12;16.20;99.90
50947;DHT22;36955;47.416;7.716;2022-08-19T04:35:41;16.20;99.90
50947;DHT22;36955;47.416;7.716;2022-08-19T04:38:07;16.20;99.90
50947;DHT22;36955;47.416;7.716;2022-08-19T04:40:39;16.20;99.90
50947;DHT22;36955;47.416;7.716;2022-08-19T04:43:05;16.10;99.90
50947;DHT22;36955;47.416;7.716;2022-08-19T04:45:31;16.10;99.90
50947;DHT22;36955;47.416;7.716;2022-08-19T04:47:57;16.10;99.90
50947;DHT22;36955;47.416;7.716;2022-08-19T04:50:23;16.10;99.90
50947;DHT22;36955;47.416;7.716;2022-08-19T04:52:51;16.10;99.90
50947;DHT22;36955;47.416;7.716;2022-08-19T04:55:17;16.00;99.90
50947;DHT22;36955;47.416;7.716;2022-08-19T04:57:43;16.10;99.90
50947;DHT22;36955;47.416;7.716;2022-08-19T05:00:10;16.00;99.90
50947;DHT22;36955;47.416;7.716;2022-08-19T05:02:38;16.10;99.90
50947;DHT22;36955;47.416;7.716;2022-08-19T05:05:05;16.10;99.90
50947;DHT22;36955;47.416;7.716;2022-08-19T05:07:31;16.10;99.90
50947;DHT22;36955;47.416;7.716;2022-08-19T05:09:57;16.10;99.90
50947;DHT22;36955;47.416;7.716;2022-08-19T05:12:24;16.10;99.90
50947;DHT22;36955;47.416;7.716;2022-08-19T05:14:50;16.10;99.90
50947;DHT22;36955;47.416;7.716;2022-08-19T05:17:17;16.10;99.90
50947;DHT22;36955;47.416;7.716;2022-08-19T05:19:43;16.10;99.90
50947;DHT22;36955;47.416;7.716;2022-08-19T05:22:09;16.10;99.90
50947;DHT22;36955;47.416;7.716;2022-08-19T05:24:36;16.20;99.90
50947;DHT22;36955;47.416;7.716;2022-08-19T05:27:02;16.20;99.90
50947;DHT22;36955;47.416;7.716;2022-08-19T05:29:30;16.20;99.90
50947;DHT22;36955;47.416;7.716;2022-08-19T05:31:56;16.30;99.90
50947;DHT22;36955;47.416;7.716;2022-08-19T05:34:23;16.30;99.90
50947;DHT22;36955;47.416;7.716;2022-08-19T05:36:51;16.30;99.90
50947;DHT22;36955;47.416;7.716;2022-08-19T05:39:20;16.30;99.90
50947;DHT22;36955;47.416;7.716;2022-08-19T05:41:49;16.40;99.90
50947;DHT22;36955;47.416;7.716;2022-08-19T05:44:17;16.40;99.90
50947;DHT22;36955;47.416;7.716;2022-08-19T05:46:44;16.40;99.90
50947;DHT22;36955;47.416;7.716;2022-08-19T05:49:10;16.40;99.90
50947;DHT22;36955;47.416;7.716;2022-08-19T05:51:36;16.40;99.90
50947;DHT22;36955;47.416;7.716;2022-08-19T05:54:04;16.50;99.90
50947;DHT22;36955;47.416;7.716;2022-08-19T05:56:30;16.50;99.90
50947;DHT22;36955;47.416;7.716;2022-08-19T05:58:57;16.50;99.90
50947;DHT22;36955;47.416;7.716;2022-08-19T06:01:25;16.50;99.90
50947;DHT22;36955;47.416;7.716;2022-08-19T06:03:51;16.50;99.90
50947;DHT22;36955;47.416;7.716;2022-08-19T06:06:18;16.50;99.90
50947;DHT22;36955;47.416;7.716;2022-08-19T06:08:44;16.50;99.90
50947;DHT22;36955;47.416;7.716;2022-08-19T06:13:43;16.50;99.90
50947;DHT22;36955;47.416;7.716;2022-08-19T06:16:09;16.50;99.90
50947;DHT22;36955;47.416;7.716;2022-08-19T06:18:35;16.50;99.90
50947;DHT22;36955;47.416;7.716;2022-08-19T06:21:01;16.50;99.90
50947;DHT22;36955;47.416;7.716;2022-08-19T06:23:27;16.60;99.90
50947;DHT22;36955;47.416;7.716;2022-08-19T06:25:53;16.60;99.90
50947;DHT22;36955;47.416;7.716;2022-08-19T06:28:19;16.50;99.90
50947;DHT22;36955;47.416;7.716;2022-08-19T06:30:45;16.50;99.90
50947;DHT22;36955;47.416;7.716;2022-08-19T06:33:11;16.50;99.90
50947;DHT22;36955;47.416;7.716;2022-08-19T06:35:41;16.50;99.90
50947;DHT22;36955;47.416;7.716;2022-08-19T06:38:07;16.50;99.90
50947;DHT22;36955;47.416;7.716;2022-08-19T06:40:33;16.50;99.90
50947;DHT22;36955;47.416;7.716;2022-08-19T06:42:59;16.60;99.90
50947;DHT22;36955;47.416;7.716;2022-08-19T06:45:25;16.60;99.90
50947;DHT22;36955;47.416;7.716;2022-08-19T06:47:52;16.60;99.90
50947;DHT22;36955;47.416;7.716;2022-08-19T06:50:18;16.60;99.90
50947;DHT22;36955;47.416;7.716;2022-08-19T06:52:44;16.70;99.90
50947;DHT22;36955;47.416;7.716;2022-08-19T06:55:10;16.70;99.90
50947;DHT22;36955;47.416;7.716;2022-08-19T06:57:37;16.70;99.90
50947;DHT22;36955;47.416;7.716;2022-08-19T07:00:04;16.70;99.90
50947;DHT22;36955;47.416;7.716;2022-08-19T07:02:30;16.80;99.90
50947;DHT22;36955;47.416;7.716;2022-08-19T07:04:56;16.80;99.90
50947;DHT22;36955;47.416;7.716;2022-08-19T07:07:22;16.80;99.90
50947;DHT22;36955;47.416;7.716;2022-08-19T07:09:51;16.80;99.90
50947;DHT22;36955;47.416;7.716;2022-08-19T07:12:17;16.80;99.90
50947;DHT22;36955;47.416;7.716;2022-08-19T07:14:43;16.80;99.90
50947;DHT22;36955;47.416;7.716;2022-08-19T07:17:10;16.90;99.90
50947;DHT22;36955;47.416;7.716;2022-08-19T07:19:37;16.90;99.90
50947;DHT22;36955;47.416;7.716;2022-08-19T07:22:06;16.90;99.90
50947;DHT22;36955;47.416;7.716;2022-08-19T07:24:32;16.90;99.90
50947;DHT22;36955;47.416;7.716;2022-08-19T07:27:01;16.90;99.90
50947;DHT22;36955;47.416;7.716;2022-08-19T07:29:28;16.90;99.90
50947;DHT22;36955;47.416;7.716;2022-08-19T07:31:55;16.90;99.90
50947;DHT22;36955;47.416;7.716;2022-08-19T07:34:23;16.90;99.90
50947;DHT22;36955;47.416;7.716;2022-08-19T07:36:50;17.00;99.90
50947;DHT22;36955;47.416;7.716;2022-08-19T07:39:25;17.00;99.90
50947;DHT22;36955;47.416;7.716;2022-08-19T07:41:53;17.00;99.90
50947;DHT22;36955;47.416;7.716;2022-08-19T07:44:19;17.00;99.90
50947;DHT22;36955;47.416;7.716;2022-08-19T07:46:49;17.00;99.90
50947;DHT22;36955;47.416;7.716;2022-08-19T07:49:15;17.10;99.90
50947;DHT22;36955;47.416;7.716;2022-08-19T07:51:41;17.10;99.90
50947;DHT22;36955;47.416;7.716;2022-08-19T07:54:08;17.20;99.90
50947;DHT22;36955;47.416;7.716;2022-08-19T07:56:34;17.20;99.90
50947;DHT22;36955;47.416;7.716;2022-08-19T07:59:00;17.30;99.90
50947;DHT22;36955;47.416;7.716;2022-08-19T08:01:27;17.30;99.90
50947;DHT22;36955;47.416;7.716;2022-08-19T08:03:54;17.30;99.90
50947;DHT22;36955;47.416;7.716;2022-08-19T08:06:21;17.30;99.90
50947;DHT22;36955;47.416;7.716;2022-08-19T08:08:47;17.30;99.90
50947;DHT22;36955;47.416;7.716;2022-08-19T08:11:16;17.30;99.90
50947;DHT22;36955;47.416;7.716;2022-08-19T08:13:42;17.20;99.90
50947;DHT22;36955;47.416;7.716;2022-08-19T08:16:09;17.20;99.90
50947;DHT22;36955;47.416;7.716;2022-08-19T08:18:35;17.20;99.90
50947;DHT22;36955;47.416;7.716;2022-08-19T08:21:01;17.30;99.90
50947;DHT22;36955;47.416;7.716;2022-08-19T08:23:27;17.30;99.90
50947;DHT22;36955;47.416;7.716;2022-08-19T08:25:55;17.30;99.90
50947;DHT22;36955;47.416;7.716;2022-08-19T08:28:23;17.30;99.90
50947;DHT22;36955;47.416;7.716;2022-08-19T08:30:50;17.30;99.90
50947;DHT22;36955;47.416;7.716;2022-08-19T08:33:21;17.30;99.90
50947;DHT22;36955;47.416;7.716;2022-08-19T08:35:48;17.30;99.90
50947;DHT22;36955;47.416;7.716;2022-08-19T08:38:15;17.30;99.90
50947;DHT22;36955;47.416;7.716;2022-08-19T08:40:48;17.20;99.90
50947;DHT22;36955;47.416;7.716;2022-08-19T08:46:15;17.30;99.90
50947;DHT22;36955;47.416;7.716;2022-08-19T08:48:59;17.30;99.90
50947;DHT22;36955;47.416;7.716;2022-08-19T08:51:32;17.40;99.90
50947;DHT22;36955;47.416;7.716;2022-08-19T08:54:00;17.40;99.90
50947;DHT22;36955;47.416;7.716;2022-08-19T08:56:27;17.40;99.90
50947;DHT22;36955;47.416;7.716;2022-08-19T08:59:04;17.50;99.90
50947;DHT22;36955;47.416;7.716;2022-08-19T09:01:30;17.50;99.90
50947;DHT22;36955;47.416;7.716;2022-08-19T09:03:56;17.50;99.90
50947;DHT22;36955;47.416;7.716;2022-08-19T09:09:28;17.70;99.90
50947;DHT22;36955;47.416;7.716;2022-08-19T09:17:14;17.80;99.90
50947;DHT22;36955;47.416;7.716;2022-08-19T09:19:49;17.90;99.90
50947;DHT22;36955;47.416;7.716;2022-08-19T09:22:16;17.80;99.90
50947;DHT22;36955;47.416;7.716;2022-08-19T09:24:42;17.80;99.90
50947;DHT22;36955;47.416;7.716;2022-08-19T09:27:08;17.80;99.90
50947;DHT22;36955;47.416;7.716;2022-08-19T09:29:34;17.80;99.90
50947;DHT22;36955;47.416;7.716;2022-08-19T09:32:00;17.80;99.90
50947;DHT22;36955;47.416;7.716;2022-08-19T09:34:26;17.80;99.90
50947;DHT22;36955;47.416;7.716;2022-08-19T09:36:52;17.80;99.90
50947;DHT22;36955;47.416;7.716;2022-08-19T09:39:18;17.80;99.90
50947;DHT22;36955;47.416;7.716;2022-08-19T09:41:44;17.80;99.90
50947;DHT22;36955;47.416;7.716;2022-08-19T09:44:10;17.90;99.90
50947;DHT22;36955;47.416;7.716;2022-08-19T09:46:36;17.90;99.90
50947;DHT22;36955;47.416;7.716;2022-08-19T09:49:02;17.80;99.90
50947;DHT22;36955;47.416;7.716;2022-08-19T09:51:29;17.80;99.90
50947;DHT22;36955;47.416;7.716;2022-08-19T09:53:59;17.90;99.90
50947;DHT22;36955;47.416;7.716;2022-08-19T09:56:26;18.00;99.90
50947;DHT22;36955;47.416;7.716;2022-08-19T09:58:52;18.00;99.90
50947;DHT22;36955;47.416;7.716;2022-08-19T10:01:21;18.20;99.90
50947;DHT22;36955;47.416;7.716;2022-08-19T10:03:49;18.20;99.90
50947;DHT22;36955;47.416;7.716;2022-08-19T10:06:17;18.40;99.90
50947;DHT22;36955;47.416;7.716;2022-08-19T10:08:43;18.50;99.90
50947;DHT22;36955;47.416;7.716;2022-08-19T10:11:10;18.50;99.90
50947;DHT22;36955;47.416;7.716;2022-08-19T10:13:36;18.60;99.90
50947;DHT22;36955;47.416;7.716;2022-08-19T10:16:08;18.70;99.90
50947;DHT22;36955;47.416;7.716;2022-08-19T10:18:36;18.80;99.90
50947;DHT22;36955;47.416;7.716;2022-08-19T10:23:30;18.80;99.90
50947;DHT22;36955;47.416;7.716;2022-08-19T10:26:00;18.80;99.90
50947;DHT22;36955;47.416;7.716;2022-08-19T10:28:26;18.70;99.90
50947;DHT22;36955;47.416;7.716;2022-08-19T10:30:52;18.70;99.90
50947;DHT22;36955;47.416;7.716;2022-08-19T10:33:18;18.70;99.90
50947;DHT22;36955;47.416;7.716;2022-08-19T10:35:44;18.70;99.90
50947;DHT22;36955;47.416;7.716;2022-08-19T10:38:10;18.60;99.90
50947;DHT22;36955;47.416;7.716;2022-08-19T10:40:36;18.60;99.90
50947;DHT22;36955;47.416;7.716;2022-08-19T10:43:02;18.50;99.90
50947;DHT22;36955;47.416;7.716;2022-08-19T10:45:28;18.50;99.90
50947;DHT22;36955;47.416;7.716;2022-08-19T10:47:54;18.50;99.90
50947;DHT22;36955;47.416;7.716;2022-08-19T10:50:20;18.50;99.90
50947;DHT22;36955;47.416;7.716;2022-08-19T10:52:48;18.50;99.90
50947;DHT22;36955;47.416;7.716;2022-08-19T10:55:15;18.50;99.90
50947;DHT22;36955;47.416;7.716;2022-08-19T10:57:42;18.50;99.90
50947;DHT22;36955;47.416;7.716;2022-08-19T11:00:08;18.50;99.90
50947;DHT22;36955;47.416;7.716;2022-08-19T11:02:35;18.50;99.90
50947;DHT22;36955;47.416;7.716;2022-08-19T11:05:01;18.50;99.90
50947;DHT22;36955;47.416;7.716;2022-08-19T11:07:27;18.50;99.90
50947;DHT22;36955;47.416;7.716;2022-08-19T11:09:53;18.50;99.90
50947;DHT22;36955;47.416;7.716;2022-08-19T11:12:19;18.50;99.90
50947;DHT22;36955;47.416;7.716;2022-08-19T11:14:45;18.50;99.90
50947;DHT22;36955;47.416;7.716;2022-08-19T11:17:11;18.60;99.90
50947;DHT22;36955;47.416;7.716;2022-08-19T11:19:37;18.60;99.90
50947;DHT22;36955;47.416;7.716;2022-08-19T11:22:03;18.60;99.90
50947;DHT22;36955;47.416;7.716;2022-08-19T11:24:30;18.60;99.90
50947;DHT22;36955;47.416;7.716;2022-08-19T11:27:02;18.60;99.90
50947;DHT22;36955;47.416;7.716;2022-08-19T11:29:29;18.60;99.90
50947;DHT22;36955;47.416;7.716;2022-08-19T11:31:55;18.70;99.90
50947;DHT22;36955;47.416;7.716;2022-08-19T11:34:26;18.70;99.90
50947;DHT22;36955;47.416;7.716;2022-08-19T11:36:52;18.70;99.90
50947;DHT22;36955;47.416;7.716;2022-08-19T11:39:20;18.70;99.90
50947;DHT22;36955;47.416;7.716;2022-08-19T11:41:47;18.70;99.90
50947;DHT22;36955;47.416;7.716;2022-08-19T11:44:14;18.70;99.90
50947;DHT22;36955;47.416;7.716;2022-08-19T11:46:42;18.80;99.90
50947;DHT22;36955;47.416;7.716;2022-08-19T11:49:08;18.90;99.90
50947;DHT22;36955;47.416;7.716;2022-08-19T11:51:35;19.00;99.90
50947;DHT22;36955;47.416;7.716;2022-08-19T11:54:01;19.00;99.90
50947;DHT22;36955;47.416;7.716;2022-08-19T11:56:28;19.10;99.90
50947;DHT22;36955;47.416;7.716;2022-08-19T11:58:55;19.10;99.90
50947;DHT22;36955;47.416;7.716;2022-08-19T12:01:22;19.10;99.90
50947;DHT22;36955;47.416;7.716;2022-08-19T12:03:50;19.00;99.90
50947;DHT22;36955;47.416;7.716;2022-08-19T12:06:22;19.00;99.90
50947;DHT22;36955;47.416;7.716;2022-08-19T12:08:48;18.90;99.90
50947;DHT22;36955;47.416;7.716;2022-08-19T12:11:15;18.90;99.90
50947;DHT22;36955;47.416;7.716;2022-08-19T12:13:42;19.00;99.90
50947;DHT22;36955;47.416;7.716;2022-08-19T12:16:10;19.00;99.90
50947;DHT22;36955;47.416;7.716;2022-08-19T12:18:36;19.00;99.90
50947;DHT22;36955;47.416;7.716;2022-08-19T12:21:02;19.00;99.90
50947;DHT22;36955;47.416;7.716;2022-08-19T12:23:29;19.00;99.90
50947;DHT22;36955;47.416;7.716;2022-08-19T12:25:55;19.00;99.90
50947;DHT22;36955;47.416;7.716;2022-08-19T12:28:22;18.90;99.90
50947;DHT22;36955;47.416;7.716;2022-08-19T12:30:49;18.90;99.90
50947;DHT22;36955;47.416;7.716;2022-08-19T12:33:15;18.90;99.90
50947;DHT22;36955;47.416;7.716;2022-08-19T12:35:43;18.80;99.90
50947;DHT22;36955;47.416;7.716;2022-08-19T12:38:09;18.80;99.90
50947;DHT22;36955;47.416;7.716;2022-08-19T12:40:36;18.70;99.90
50947;DHT22;36955;47.416;7.716;2022-08-19T12:43:02;18.80;99.90
50947;DHT22;36955;47.416;7.716;2022-08-19T12:45:28;18.70;99.90
50947;DHT22;36955;47.416;7.716;2022-08-19T12:47:54;18.80;99.90
50947;DHT22;36955;47.416;7.716;2022-08-19T12:50:20;18.80;99.90
50947;DHT22;36955;47.416;7.716;2022-08-19T12:52:47;18.90;99.90
50947;DHT22;36955;47.416;7.716;2022-08-19T12:55:13;18.80;99.90
50947;DHT22;36955;47.416;7.716;2022-08-19T12:57:39;18.90;99.90
50947;DHT22;36955;47.416;7.716;2022-08-19T13:00:11;18.90;99.90
50947;DHT22;36955;47.416;7.716;2022-08-19T13:02:39;19.00;99.90
50947;DHT22;36955;47.416;7.716;2022-08-19T13:05:07;19.10;99.90
50947;DHT22;36955;47.416;7.716;2022-08-19T13:07:33;19.10;99.90
50947;DHT22;36955;47.416;7.716;2022-08-19T13:10:00;19.10;99.90
50947;DHT22;36955;47.416;7.716;2022-08-19T13:12:26;19.10;99.90
50947;DHT22;36955;47.416;7.716;2022-08-19T13:14:55;19.20;99.90
50947;DHT22;36955;47.416;7.716;2022-08-19T13:17:21;19.30;99.90
50947;DHT22;36955;47.416;7.716;2022-08-19T13:19:48;19.30;99.90
50947;DHT22;36955;47.416;7.716;2022-08-19T13:22:14;19.40;99.90
50947;DHT22;36955;47.416;7.716;2022-08-19T13:24:40;19.40;99.90
50947;DHT22;36955;47.416;7.716;2022-08-19T13:27:06;19.40;99.90
50947;DHT22;36955;47.416;7.716;2022-08-19T13:29:32;19.40;99.90
50947;DHT22;36955;47.416;7.716;2022-08-19T13:31:58;19.40;99.90
50947;DHT22;36955;47.416;7.716;2022-08-19T13:34:33;19.40;99.90
50947;DHT22;36955;47.416;7.716;2022-08-19T13:37:00;19.40;99.90
50947;DHT22;36955;47.416;7.716;2022-08-19T13:39:26;19.20;99.90
50947;DHT22;36955;47.416;7.716;2022-08-19T13:41:52;19.00;99.90
50947;DHT22;36955;47.416;7.716;2022-08-19T13:44:18;18.90;99.90
50947;DHT22;36955;47.416;7.716;2022-08-19T13:46:46;18.70;99.90
50947;DHT22;36955;47.416;7.716;2022-08-19T13:49:13;18.50;99.90
50947;DHT22;36955;47.416;7.716;2022-08-19T13:51:39;18.30;99.90
50947;DHT22;36955;47.416;7.716;2022-08-19T13:54:06;18.20;99.90
50947;DHT22;36955;47.416;7.716;2022-08-19T13:56:32;18.10;99.90
50947;DHT22;36955;47.416;7.716;2022-08-19T13:58:58;18.00;99.90
50947;DHT22;36955;47.416;7.716;2022-08-19T14:01:24;18.00;99.90
50947;DHT22;36955;47.416;7.716;2022-08-19T14:03:50;18.00;99.90
50947;DHT22;36955;47.416;7.716;2022-08-19T14:06:16;17.90;99.90
50947;DHT22;36955;47.416;7.716;2022-08-19T14:08:43;18.00;99.90
50947;DHT22;36955;47.416;7.716;2022-08-19T14:11:09;18.00;99.90
50947;DHT22;36955;47.416;7.716;2022-08-19T14:13:36;18.10;99.90
50947;DHT22;36955;47.416;7.716;2022-08-19T14:16:06;18.20;99.90
50947;DHT22;36955;47.416;7.716;2022-08-19T14:18:33;18.20;99.90
50947;DHT22;36955;47.416;7.716;2022-08-19T14:20:59;18.30;99.90
50947;DHT22;36955;47.416;7.716;2022-08-19T14:23:25;18.30;99.90
50947;DHT22;36955;47.416;7.716;2022-08-19T14:25:51;18.40;99.90
50947;DHT22;36955;47.416;7.716;2022-08-19T14:28:17;18.40;99.90
50947;DHT22;36955;47.416;7.716;2022-08-19T14:30:43;18.40;99.90
50947;DHT22;36955;47.416;7.716;2022-08-19T14:33:09;18.50;99.90
50947;DHT22;36955;47.416;7.716;2022-08-19T14:35:35;18.50;99.90
50947;DHT22;36955;47.416;7.716;2022-08-19T14:38:03;18.50;99.90
50947;DHT22;36955;47.416;7.716;2022-08-19T14:40:30;18.50;99.90
50947;DHT22;36955;47.416;7.716;2022-08-19T14:42:58;18.40;99.90
50947;DHT22;36955;47.416;7.716;2022-08-19T14:45:27;18.30;99.90
50947;DHT22;36955;47.416;7.716;2022-08-19T14:47:53;18.20;99.90
50947;DHT22;36955;47.416;7.716;2022-08-19T14:50:19;18.00;99.90
50947;DHT22;36955;47.416;7.716;2022-08-19T14:52:46;18.00;99.90
50947;DHT22;36955;47.416;7.716;2022-08-19T14:55:13;17.90;99.90
50947;DHT22;36955;47.416;7.716;2022-08-19T14:57:43;17.90;99.90
50947;DHT22;36955;47.416;7.716;2022-08-19T15:00:11;17.90;99.90
50947;DHT22;36955;47.416;7.716;2022-08-19T15:02:37;17.90;99.90
50947;DHT22;36955;47.416;7.716;2022-08-19T15:05:03;17.90;99.90
50947;DHT22;36955;47.416;7.716;2022-08-19T15:07:29;17.90;99.90
50947;DHT22;36955;47.416;7.716;2022-08-19T15:09:56;17.90;99.90
50947;DHT22;36955;47.416;7.716;2022-08-19T15:12:22;18.00;99.90
50947;DHT22;36955;47.416;7.716;2022-08-19T15:14:48;18.00;99.90
50947;DHT22;36955;47.416;7.716;2022-08-19T15:17:14;18.10;99.90
50947;DHT22;36955;47.416;7.716;2022-08-19T15:19:40;18.20;99.90
50947;DHT22;36955;47.416;7.716;2022-08-19T15:22:06;18.20;99.90
50947;DHT22;36955;47.416;7.716;2022-08-19T15:24:32;18.20;99.90
50947;DHT22;36955;47.416;7.716;2022-08-19T15:26:58;18.20;99.90
50947;DHT22;36955;47.416;7.716;2022-08-19T15:29:24;18.30;99.90
50947;DHT22;36955;47.416;7.716;2022-08-19T15:31:51;18.20;99.90
50947;DHT22;36955;47.416;7.716;2022-08-19T15:34:17;18.10;99.90
50947;DHT22;36955;47.416;7.716;2022-08-19T15:36:43;18.10;99.90
50947;DHT22;36955;47.416;7.716;2022-08-19T15:39:09;18.00;99.90
50947;DHT22;36955;47.416;7.716;2022-08-19T15:41:36;18.00;99.90
50947;DHT22;36955;47.416;7.716;2022-08-19T15:44:06;17.90;99.90
50947;DHT22;36955;47.416;7.716;2022-08-19T15:46:34;17.90;99.90